Terminal Aerodrome Forecast
Issued by NWS Charleston, WV

Current Version | Previous Version | Graphics & Text | Print | Product List | Glossary On
Versions: 1 2 3 4 5 6 7 8 9 10 11 12 13 14 15 16 17 18 19 20 21 22 23 24
000
FTUS41 KRLX 230800 AAA
TAFBKW
TAF AMD
KBKW 230800Z 2308/2406 14012G17KT 6SM -SHRA SCT010 BKN060
      TEMPO 2308/2312 BKN020
     FM231200 15010KT P6SM VCSH BKN025
     FM231800 16008KT P6SM BKN025
     FM240300 15008KT 5SM -SHRA BR BKN015
     FM240500 15006KT 3SM -SHRA BR OVC015=

USA.gov is the U.S. government's official web portal to all federal, state and local government web resources and services.